Wetterdaten: Woche 01.02.10 - 07.02.10 (KW5)
Datum Zeit Temp. Innen Temp. Aussen UV X Diff Temp. Feuchte Inne Feuchte Auss Sonnenschein Luftdruck Regen ab 0,1 Wind Sonnenschein Windben
01.02.2010 00:00 9,0 C 0,1 C 0,0 UV-I 0,0 C 50 % 89 % 0 % 1003,6 hPa 0,0 l/m 5,2 km/h (1 Bft) 0,00 h 4,9 km/h (1 Bft)
01.02.2010 01:00 9,2 C -0,1 C 0,0 UV-I 0,0 C 50 % 89 % 0 % 1003,5 hPa 0,0 l/m 3,3 km/h (1 Bft) 0,00 h 3,7 km/h (1 Bft)
01.02.2010 02:00 9,2 C 0,1 C 0,0 UV-I 0,0 C 50 % 89 % 0 % 1003,4 hPa 0,0 l/m 6,9 km/h (2 Bft) 0,00 h 7,6 km/h (2 Bft)
01.02.2010 03:00 9,2 C 0,5 C 0,0 UV-I 0,0 C 50 % 89 % 0 % 1003,3 hPa 0,0 l/m 9,2 km/h (2 Bft) 0,00 h 8,7 km/h (2 Bft)
01.02.2010 04:00 9,2 C 0,7 C 0,0 UV-I 0,0 C 51 % 90 % 0 % 1003,3 hPa 0,0 l/m 8,6 km/h (2 Bft) 0,00 h 6,8 km/h (2 Bft)
01.02.2010 05:00 9,3 C 0,7 C 0,0 UV-I 0,0 C 51 % 90 % 0 % 1003,6 hPa 0,0 l/m 6,0 km/h (2 Bft) 0,00 h 4,7 km/h (1 Bft)
01.02.2010 06:00 9,4 C 0,6 C 0,0 UV-I 0,0 C 52 % 91 % 0 % 1003,3 hPa 0,0 l/m 3,8 km/h (1 Bft) 0,00 h 4,6 km/h (1 Bft)
01.02.2010 07:00 9,3 C 0,7 C 0,0 UV-I 0,0 C 52 % 91 % 0 % 1003,5 hPa 0,0 l/m 5,8 km/h (2 Bft) 0,00 h 6,0 km/h (2 Bft)
01.02.2010 08:00 9,2 C 0,8 C 0,0 UV-I 0,0 C 52 % 91 % 0 % 1003,8 hPa 0,0 l/m 6,5 km/h (2 Bft) 0,00 h 6,1 km/h (2 Bft)
01.02.2010 09:00 9,4 C 0,7 C 0,0 UV-I 0,0 C 52 % 91 % 0 % 1004,0 hPa 0,0 l/m 4,4 km/h (1 Bft) 0,00 h 4,3 km/h (1 Bft)
01.02.2010 10:00 9,6 C 1,0 C 0,5 UV-I 0,0 C 52 % 92 % 1 % 1004,5 hPa 0,0 l/m 6,7 km/h (2 Bft) 0,00 h 5,5 km/h (1 Bft)
01.02.2010 11:00 9,9 C 1,5 C 1,1 UV-I 0,1 C 52 % 91 % 2 % 1004,9 hPa 0,7 l/m 8,5 km/h (2 Bft) 0,00 h 8,0 km/h (2 Bft)
01.02.2010 12:00 10,1 C 1,8 C 1,1 UV-I 0,3 C 51 % 90 % 8 % 1005,0 hPa 0,3 l/m 7,8 km/h (2 Bft) 0,00 h 6,3 km/h (2 Bft)
01.02.2010 13:00 10,0 C 1,5 C 0,4 UV-I 0,0 C 52 % 91 % 0 % 1005,0 hPa 0,4 l/m 6,3 km/h (2 Bft) 0,00 h 5,4 km/h (1 Bft)
01.02.2010 14:00 10,0 C 1,7 C 0,6 UV-I 0,0 C 52 % 91 % 1 % 1005,3 hPa 0,1 l/m 7,8 km/h (2 Bft) 0,00 h 6,7 km/h (2 Bft)
01.02.2010 15:00 10,1 C 1,7 C 0,2 UV-I 0,0 C 52 % 91 % 0 % 1005,9 hPa 0,1 l/m 6,5 km/h (2 Bft) 0,00 h 5,7 km/h (1 Bft)
01.02.2010 16:00 9,9 C 1,5 C 0,2 UV-I 0,0 C 53 % 92 % 0 % 1006,8 hPa 0,1 l/m 5,3 km/h (1 Bft) 0,00 h 4,1 km/h (1 Bft)
01.02.2010 17:00 9,9 C 1,3 C 0,0 UV-I 0,0 C 53 % 92 % 0 % 1007,6 hPa 0,0 l/m 6,0 km/h (2 Bft) 0,00 h 5,7 km/h (1 Bft)
01.02.2010 18:00 9,9 C 1,3 C 0,0 UV-I 0,0 C 53 % 92 % 0 % 1008,7 hPa 0,0 l/m 5,8 km/h (2 Bft) 0,00 h 6,0 km/h (2 Bft)
01.02.2010 19:00 9,8 C 1,3 C 0,0 UV-I 0,0 C 53 % 92 % 0 % 1009,6 hPa 0,0 l/m 5,5 km/h (1 Bft) 0,00 h 6,0 km/h (2 Bft)
01.02.2010 20:00 9,9 C 1,2 C 0,0 UV-I 0,0 C 53 % 92 % 0 % 1010,7 hPa 0,0 l/m 4,0 km/h (1 Bft) 0,00 h 3,2 km/h (1 Bft)
01.02.2010 21:00 9,8 C 0,9 C 0,0 UV-I 0,0 C 52 % 92 % 0 % 1011,5 hPa 0,0 l/m 4,8 km/h (1 Bft) 0,00 h 4,2 km/h (1 Bft)
01.02.2010 22:00 9,9 C 0,4 C 0,0 UV-I 0,0 C 50 % 91 % 0 % 1012,1 hPa 0,0 l/m 0,7 km/h (0 Bft) 0,00 h 0,8 km/h (0 Bft)
01.02.2010 23:00 9,8 C -0,4 C 0,0 UV-I 0,0 C 50 % 90 % 0 % 1012,6 hPa 0,0 l/m 0,1 km/h (0 Bft) 0,00 h 0,2 km/h (0 Bft)
02.02.2010 00:00 9,7 C -0,9 C 0,0 UV-I 0,0 C 50 % 91 % 0 % 1013,1 hPa 0,0 l/m 0,4 km/h (0 Bft) 0,00 h 0,7 km/h (0 Bft)
02.02.2010 01:00 9,6 C -1,0 C 0,0 UV-I 0,0 C 50 % 91 % 0 % 1013,2 hPa 0,0 l/m 1,7 km/h (1 Bft) 0,00 h 3,3 km/h (1 Bft)
02.02.2010 02:00 9,6 C -1,0 C 0,0 UV-I 0,0 C 50 % 92 % 0 % 1012,8 hPa 0,0 l/m 2,1 km/h (1 Bft) 0,00 h 3,5 km/h (1 Bft)
02.02.2010 03:00 9,6 C -0,4 C 0,0 UV-I 0,0 C 51 % 92 % 0 % 1012,4 hPa 0,0 l/m 2,6 km/h (1 Bft) 0,00 h 3,0 km/h (1 Bft)
02.02.2010 04:00 9,7 C -0,1 C 0,0 UV-I 0,0 C 51 % 93 % 0 % 1012,4 hPa 0,0 l/m 4,3 km/h (1 Bft) 0,00 h 4,6 km/h (1 Bft)
02.02.2010 05:00 9,7 C -0,0 C 0,0 UV-I 0,0 C 51 % 93 % 0 % 1011,8 hPa 0,0 l/m 6,2 km/h (2 Bft) 0,00 h 6,2 km/h (2 Bft)
02.02.2010 06:00 9,6 C 0,3 C 0,0 UV-I 0,0 C 50 % 91 % 0 % 1010,8 hPa 0,0 l/m 8,1 km/h (2 Bft) 0,00 h 6,2 km/h (2 Bft)
02.02.2010 07:00 9,5 C 0,7 C 0,0 UV-I 0,0 C 49 % 88 % 0 % 1009,9 hPa 0,0 l/m 11,5 km/h (2 Bft) 0,00 h 12,1 km/h (2 Bft)
02.02.2010 08:00 9,5 C 1,2 C 0,0 UV-I 0,0 C 49 % 86 % 0 % 1008,9 hPa 0,0 l/m 12,0 km/h (2 Bft) 0,00 h 9,6 km/h (2 Bft)
02.02.2010 09:00 9,6 C 1,7 C 0,1 UV-I 0,0 C 50 % 86 % 0 % 1008,3 hPa 0,0 l/m 13,6 km/h (3 Bft) 0,00 h 13,1 km/h (3 Bft)
02.02.2010 10:00 9,8 C 2,2 C 0,3 UV-I 0,0 C 50 % 87 % 0 % 1007,1 hPa 0,1 l/m 14,4 km/h (3 Bft) 0,00 h 12,6 km/h (3 Bft)
02.02.2010 11:00 9,9 C 2,3 C 0,6 UV-I 0,0 C 52 % 90 % 0 % 1006,4 hPa 0,2 l/m 16,2 km/h (3 Bft) 0,00 h 12,9 km/h (3 Bft)
02.02.2010 12:00 9,9 C 2,3 C 0,5 UV-I 0,0 C 53 % 91 % 0 % 1005,3 hPa 0,7 l/m 15,1 km/h (3 Bft) 0,00 h 13,7 km/h (3 Bft)
02.02.2010 13:00 9,9 C 2,2 C 0,5 UV-I 0,0 C 53 % 92 % 0 % 1003,0 hPa 1,0 l/m 13,9 km/h (3 Bft) 0,00 h 13,3 km/h (3 Bft)
02.02.2010 14:00 10,0 C 2,1 C 0,2 UV-I 0,0 C 54 % 92 % 0 % 1001,8 hPa 1,6 l/m 16,5 km/h (3 Bft) 0,00 h 14,0 km/h (3 Bft)
02.02.2010 15:00 10,0 C 2,1 C 0,0 UV-I 0,0 C 54 % 92 % 0 % 1000,9 hPa 0,6 l/m 15,4 km/h (3 Bft) 0,00 h 13,6 km/h (3 Bft)
02.02.2010 16:00 10,0 C 2,1 C 0,0 UV-I 0,0 C 55 % 92 % 0 % 1000,1 hPa 0,0 l/m 17,8 km/h (3 Bft) 0,00 h 14,4 km/h (3 Bft)
02.02.2010 17:00 10,0 C 2,1 C 0,0 UV-I 0,0 C 56 % 92 % 0 % 999,2 hPa 0,0 l/m 18,8 km/h (3 Bft) 0,00 h 14,9 km/h (3 Bft)
02.02.2010 18:00 10,0 C 2,1 C 0,0 UV-I 0,0 C 56 % 95 % 0 % 998,2 hPa 0,1 l/m 19,5 km/h (3 Bft) 0,00 h 18,3 km/h (3 Bft)
02.02.2010 19:00 10,2 C 3,1 C 0,0 UV-I 0,6 C 57 % 90 % 0 % 997,4 hPa 0,4 l/m 19,5 km/h (3 Bft) 0,00 h 15,2 km/h (3 Bft)
02.02.2010 20:00 10,3 C 4,4 C 0,0 UV-I 0,0 C 58 % 92 % 0 % 996,9 hPa 0,3 l/m 20,3 km/h (4 Bft) 0,00 h 19,9 km/h (4 Bft)
02.02.2010 21:00 10,4 C 4,6 C 0,0 UV-I 0,0 C 59 % 93 % 0 % 996,5 hPa 0,8 l/m 14,8 km/h (3 Bft) 0,00 h 13,9 km/h (3 Bft)
02.02.2010 22:00 10,5 C 4,9 C 0,0 UV-I 0,0 C 60 % 95 % 0 % 996,1 hPa 0,7 l/m 15,1 km/h (3 Bft) 0,00 h 15,6 km/h (3 Bft)
02.02.2010 23:00 10,5 C 3,1 C 0,0 UV-I 0,0 C 58 % 92 % 0 % 997,2 hPa 0,9 l/m 7,2 km/h (2 Bft) 0,00 h 6,7 km/h (2 Bft)
03.02.2010 00:00 10,4 C 1,4 C 0,0 UV-I 0,0 C 56 % 93 % 0 % 998,6 hPa 0,2 l/m 0,1 km/h (0 Bft) 0,00 h 0,4 km/h (0 Bft)
03.02.2010 01:00 10,4 C 1,0 C 0,0 UV-I 0,0 C 56 % 94 % 0 % 999,4 hPa 0,2 l/m 0,0 km/h (0 Bft) 0,00 h 0,0 km/h (0 Bft)
03.02.2010 02:00 10,3 C 0,9 C 0,0 UV-I 0,0 C 55 % 95 % 0 % 1000,5 hPa 0,3 l/m 0,9 km/h (0 Bft) 0,00 h 2,2 km/h (1 Bft)
03.02.2010 03:00 10,4 C 1,1 C 0,0 UV-I 0,0 C 55 % 95 % 0 % 1001,2 hPa 0,4 l/m 2,2 km/h (1 Bft) 0,00 h 3,6 km/h (1 Bft)
03.02.2010 04:00 10,4 C 1,1 C 0,0 UV-I 0,0 C 55 % 95 % 0 % 1001,9 hPa 0,4 l/m 2,4 km/h (1 Bft) 0,00 h 4,0 km/h (1 Bft)
03.02.2010 05:00 10,4 C 1,2 C 0,0 UV-I 0,0 C 55 % 95 % 0 % 1002,8 hPa 0,4 l/m 3,4 km/h (1 Bft) 0,00 h 4,0 km/h (1 Bft)
03.02.2010 06:00 10,3 C 1,3 C 0,0 UV-I 0,0 C 55 % 95 % 0 % 1003,3 hPa 0,3 l/m 5,8 km/h (2 Bft) 0,00 h 6,6 km/h (2 Bft)
03.02.2010 07:00 10,2 C 1,3 C 0,0 UV-I 0,0 C 55 % 95 % 0 % 1004,1 hPa 0,2 l/m 3,5 km/h (1 Bft) 0,00 h 4,6 km/h (1 Bft)
03.02.2010 08:00 10,2 C 1,3 C 0,0 UV-I 0,0 C 55 % 95 % 0 % 1004,8 hPa 0,1 l/m 3,3 km/h (1 Bft) 0,00 h 4,1 km/h (1 Bft)
03.02.2010 09:00 10,3 C 1,3 C 0,1 UV-I 0,1 C 55 % 95 % 2 % 1005,9 hPa 0,1 l/m 3,5 km/h (1 Bft) 0,00 h 3,8 km/h (1 Bft)
03.02.2010 10:00 10,4 C 1,8 C 0,8 UV-I 2,0 C 55 % 96 % 57 % 1006,6 hPa 0,3 l/m 5,3 km/h (1 Bft) 0,43 h 5,8 km/h (2 Bft)
03.02.2010 11:00 10,7 C 2,4 C 1,8 UV-I 3,4 C 55 % 95 % 94 % 1007,5 hPa 0,6 l/m 7,6 km/h (2 Bft) 0,93 h 8,9 km/h (2 Bft)
03.02.2010 12:00 11,1 C 3,2 C 2,4 UV-I 5,1 C 54 % 93 % 100 % 1008,0 hPa 0,2 l/m 9,4 km/h (2 Bft) 1,00 h 8,3 km/h (2 Bft)
03.02.2010 13:00 11,7 C 4,8 C 2,1 UV-I 6,1 C 52 % 86 % 100 % 1008,9 hPa 0,0 l/m 8,3 km/h (2 Bft) 0,90 h 8,3 km/h (2 Bft)
03.02.2010 14:00 13,0 C 5,9 C 2,1 UV-I 5,9 C 48 % 77 % 100 % 1013,0 hPa 0,0 l/m 8,4 km/h (2 Bft) 1,00 h 8,5 km/h (2 Bft)
03.02.2010 15:00 13,6 C 6,4 C 1,2 UV-I 4,2 C 46 % 74 % 99 % 1012,0 hPa 0,0 l/m 5,6 km/h (1 Bft) 1,00 h 5,4 km/h (1 Bft)
03.02.2010 16:00 13,5 C 5,6 C 0,3 UV-I 1,2 C 45 % 75 % 35 % 1011,3 hPa 0,0 l/m 2,2 km/h (1 Bft) 0,40 h 3,2 km/h (1 Bft)
03.02.2010 17:00 12,6 C 4,1 C 0,0 UV-I 0,0 C 45 % 79 % 0 % 1010,5 hPa 0,0 l/m 0,0 km/h (0 Bft) 0,00 h 0,0 km/h (0 Bft)
03.02.2010 18:00 11,8 C 2,3 C 0,0 UV-I 0,0 C 47 % 84 % 0 % 1010,9 hPa 0,0 l/m 0,1 km/h (0 Bft) 0,00 h 0,0 km/h (0 Bft)
03.02.2010 19:00 11,2 C 1,1 C 0,0 UV-I 0,0 C 48 % 87 % 0 % 1011,0 hPa 0,0 l/m 0,4 km/h (0 Bft) 0,00 h 0,3 km/h (0 Bft)
03.02.2010 20:00 11,0 C 0,9 C 0,0 UV-I 0,0 C 49 % 90 % 0 % 1011,1 hPa 0,0 l/m 1,1 km/h (1 Bft) 0,00 h 1,5 km/h (1 Bft)
03.02.2010 21:00 11,0 C 1,2 C 0,0 UV-I 0,0 C 50 % 92 % 0 % 1011,1 hPa 0,0 l/m 2,4 km/h (1 Bft) 0,00 h 2,8 km/h (1 Bft)
03.02.2010 22:00 11,0 C 1,4 C 0,0 UV-I 0,0 C 51 % 92 % 0 % 1011,0 hPa 0,0 l/m 0,4 km/h (0 Bft) 0,00 h 0,2 km/h (0 Bft)
03.02.2010 23:00 11,0 C 1,7 C 0,0 UV-I 0,0 C 51 % 92 % 0 % 1011,0 hPa 0,0 l/m 3,3 km/h (1 Bft) 0,00 h 4,5 km/h (1 Bft)
04.02.2010 00:00 11,0 C 2,1 C 0,0 UV-I 0,0 C 52 % 92 % 0 % 1010,4 hPa 0,0 l/m 9,1 km/h (2 Bft) 0,00 h 9,7 km/h (2 Bft)
04.02.2010 01:00 11,0 C 2,3 C 0,0 UV-I 0,0 C 53 % 93 % 0 % 1009,9 hPa 0,5 l/m 6,4 km/h (2 Bft) 0,00 h 6,6 km/h (2 Bft)
04.02.2010 02:00 11,1 C 2,5 C 0,0 UV-I 0,0 C 53 % 94 % 0 % 1009,8 hPa 0,3 l/m 6,2 km/h (2 Bft) 0,00 h 5,8 km/h (2 Bft)
04.02.2010 03:00 11,2 C 3,2 C 0,0 UV-I 0,0 C 55 % 95 % 0 % 1009,6 hPa 0,0 l/m 8,6 km/h (2 Bft) 0,00 h 7,6 km/h (2 Bft)
04.02.2010 04:00 11,3 C 4,0 C 0,0 UV-I 0,0 C 56 % 96 % 0 % 1009,5 hPa 0,1 l/m 4,0 km/h (1 Bft) 0,00 h 4,5 km/h (1 Bft)
04.02.2010 05:00 11,4 C 5,1 C 0,0 UV-I 0,0 C 57 % 96 % 0 % 1009,7 hPa 0,0 l/m 2,3 km/h (1 Bft) 0,00 h 3,7 km/h (1 Bft)
04.02.2010 06:00 11,5 C 5,5 C 0,0 UV-I 0,0 C 58 % 96 % 0 % 1009,6 hPa 0,0 l/m 3,9 km/h (1 Bft) 0,00 h 5,4 km/h (1 Bft)
04.02.2010 07:00 11,6 C 5,6 C 0,0 UV-I 0,0 C 58 % 95 % 0 % 1009,6 hPa 0,0 l/m 4,8 km/h (1 Bft) 0,00 h 6,0 km/h (2 Bft)
04.02.2010 08:00 11,6 C 5,6 C 0,0 UV-I 0,0 C 58 % 95 % 0 % 1009,8 hPa 0,0 l/m 4,0 km/h (1 Bft) 0,00 h 4,8 km/h (1 Bft)
04.02.2010 09:00 11,8 C 5,7 C 0,0 UV-I 0,0 C 58 % 95 % 1 % 1010,3 hPa 0,0 l/m 2,4 km/h (1 Bft) 0,00 h 4,5 km/h (1 Bft)
04.02.2010 10:00 12,1 C 6,1 C 0,3 UV-I 0,2 C 58 % 95 % 5 % 1010,9 hPa 0,0 l/m 6,1 km/h (2 Bft) 0,00 h 6,5 km/h (2 Bft)
04.02.2010 11:00 12,4 C 6,6 C 1,0 UV-I 0,5 C 58 % 94 % 15 % 1010,9 hPa 0,0 l/m 7,8 km/h (2 Bft) 0,00 h 7,3 km/h (2 Bft)
04.02.2010 12:00 12,9 C 7,4 C 1,3 UV-I 1,0 C 57 % 93 % 28 % 1011,4 hPa 0,0 l/m 8,1 km/h (2 Bft) 0,00 h 7,5 km/h (2 Bft)
04.02.2010 13:00 13,3 C 8,3 C 1,3 UV-I 1,0 C 55 % 90 % 30 % 1011,2 hPa 0,0 l/m 6,8 km/h (2 Bft) 0,00 h 7,3 km/h (2 Bft)
04.02.2010 14:00 13,5 C 8,7 C 0,8 UV-I 0,2 C 55 % 87 % 7 % 1010,9 hPa 0,0 l/m 6,3 km/h (2 Bft) 0,00 h 6,4 km/h (2 Bft)
04.02.2010 15:00 13,6 C 8,8 C 0,7 UV-I 0,2 C 55 % 86 % 6 % 1010,6 hPa 0,0 l/m 4,1 km/h (1 Bft) 0,00 h 4,3 km/h (1 Bft)
04.02.2010 16:00 13,6 C 8,4 C 0,2 UV-I 0,0 C 55 % 86 % 0 % 1010,5 hPa 0,0 l/m 2,9 km/h (1 Bft) 0,00 h 3,1 km/h (1 Bft)
04.02.2010 17:00 13,5 C 7,5 C 0,0 UV-I 0,0 C 54 % 87 % 0 % 1009,9 hPa 0,0 l/m 2,0 km/h (1 Bft) 0,00 h 3,1 km/h (1 Bft)
04.02.2010 18:00 13,2 C 6,4 C 0,0 UV-I 0,0 C 55 % 89 % 0 % 1009,8 hPa 0,0 l/m 2,3 km/h (1 Bft) 0,00 h 3,6 km/h (1 Bft)
04.02.2010 19:00 12,9 C 5,4 C 0,0 UV-I 0,0 C 56 % 90 % 0 % 1009,6 hPa 0,0 l/m 4,2 km/h (1 Bft) 0,00 h 5,1 km/h (1 Bft)
04.02.2010 20:00 12,6 C 4,6 C 0,0 UV-I 0,0 C 56 % 92 % 0 % 1009,2 hPa 0,0 l/m 1,9 km/h (1 Bft) 0,00 h 2,8 km/h (1 Bft)
04.02.2010 21:00 12,4 C 4,1 C 0,0 UV-I 0,0 C 56 % 92 % 0 % 1008,8 hPa 0,0 l/m 1,5 km/h (1 Bft) 0,00 h 2,3 km/h (1 Bft)
04.02.2010 22:00 12,3 C 3,6 C 0,0 UV-I 0,0 C 56 % 93 % 0 % 1007,8 hPa 0,0 l/m 1,3 km/h (1 Bft) 0,00 h 2,7 km/h (1 Bft)
04.02.2010 23:00 12,4 C 3,4 C 0,0 UV-I 0,0 C 56 % 93 % 0 % 1007,2 hPa 0,0 l/m 3,1 km/h (1 Bft) 0,00 h 4,4 km/h (1 Bft)
05.02.2010 00:00 12,3 C 3,4 C 0,0 UV-I 0,0 C 56 % 93 % 0 % 1006,5 hPa 0,0 l/m 3,8 km/h (1 Bft) 0,00 h 4,4 km/h (1 Bft)
05.02.2010 01:00 12,3 C 3,2 C 0,0 UV-I 0,0 C 55 % 93 % 0 % 1006,0 hPa 0,0 l/m 2,3 km/h (1 Bft) 0,00 h 3,3 km/h (1 Bft)
05.02.2010 02:00 12,2 C 2,9 C 0,0 UV-I 0,0 C 55 % 93 % 0 % 1005,4 hPa 0,0 l/m 2,2 km/h (1 Bft) 0,00 h 3,6 km/h (1 Bft)
05.02.2010 03:00 12,2 C 2,9 C 0,0 UV-I 0,0 C 55 % 93 % 0 % 1004,8 hPa 0,0 l/m 7,0 km/h (2 Bft) 0,00 h 7,8 km/h (2 Bft)
05.02.2010 04:00 12,1 C 2,8 C 0,0 UV-I 0,0 C 55 % 93 % 0 % 1004,2 hPa 0,0 l/m 8,7 km/h (2 Bft) 0,00 h 9,2 km/h (2 Bft)
05.02.2010 05:00 12,1 C 2,7 C 0,0 UV-I 0,0 C 54 % 93 % 0 % 1003,6 hPa 0,0 l/m 7,9 km/h (2 Bft) 0,00 h 8,8 km/h (2 Bft)
05.02.2010 06:00 12,0 C 2,7 C 0,0 UV-I 0,0 C 54 % 93 % 0 % 1003,0 hPa 0,0 l/m 9,4 km/h (2 Bft) 0,00 h 9,6 km/h (2 Bft)
05.02.2010 07:00 11,9 C 2,9 C 0,0 UV-I 0,0 C 54 % 92 % 0 % 1002,8 hPa 0,0 l/m 8,5 km/h (2 Bft) 0,00 h 7,5 km/h (2 Bft)
05.02.2010 08:00 12,0 C 3,2 C 0,0 UV-I 0,0 C 54 % 92 % 0 % 1002,7 hPa 0,0 l/m 7,0 km/h (2 Bft) 0,00 h 7,9 km/h (2 Bft)
05.02.2010 09:00 12,1 C 3,7 C 0,1 UV-I 0,0 C 54 % 92 % 0 % 1002,6 hPa 0,2 l/m 11,0 km/h (2 Bft) 0,00 h 11,4 km/h (2 Bft)
05.02.2010 10:00 12,2 C 4,4 C 0,3 UV-I 0,0 C 55 % 94 % 0 % 1002,8 hPa 1,0 l/m 10,2 km/h (2 Bft) 0,00 h 11,6 km/h (2 Bft)
05.02.2010 11:00 12,3 C 5,1 C 0,6 UV-I 0,0 C 56 % 94 % 0 % 1003,1 hPa 0,4 l/m 10,7 km/h (2 Bft) 0,00 h 11,1 km/h (2 Bft)
05.02.2010 12:00 12,6 C 5,7 C 0,4 UV-I 0,0 C 56 % 93 % 0 % 1003,0 hPa 0,0 l/m 10,7 km/h (2 Bft) 0,00 h 9,1 km/h (2 Bft)
05.02.2010 13:00 12,8 C 6,0 C 0,2 UV-I 0,0 C 55 % 90 % 0 % 1002,7 hPa 0,0 l/m 13,0 km/h (3 Bft) 0,00 h 13,2 km/h (3 Bft)
05.02.2010 14:00 12,8 C 6,1 C 0,2 UV-I 0,0 C 55 % 90 % 0 % 1002,9 hPa 0,0 l/m 8,9 km/h (2 Bft) 0,00 h 9,6 km/h (2 Bft)
05.02.2010 15:00 12,8 C 6,1 C 0,0 UV-I 0,0 C 55 % 90 % 0 % 1003,3 hPa 0,1 l/m 8,5 km/h (2 Bft) 0,00 h 8,2 km/h (2 Bft)
05.02.2010 16:00 12,7 C 5,8 C 0,0 UV-I 0,0 C 55 % 90 % 0 % 1004,2 hPa 0,0 l/m 8,5 km/h (2 Bft) 0,00 h 9,0 km/h (2 Bft)
05.02.2010 17:00 12,6 C 5,6 C 0,0 UV-I 0,0 C 56 % 92 % 0 % 1004,6 hPa 0,0 l/m 6,7 km/h (2 Bft) 0,00 h 5,9 km/h (2 Bft)
05.02.2010 18:00 12,7 C 5,3 C 0,0 UV-I 0,0 C 57 % 93 % 0 % 1005,8 hPa 0,2 l/m 3,8 km/h (1 Bft) 0,00 h 4,5 km/h (1 Bft)
05.02.2010 19:00 12,7 C 5,2 C 0,0 UV-I 0,0 C 57 % 94 % 0 % 1006,4 hPa 0,1 l/m 4,2 km/h (1 Bft) 0,00 h 4,4 km/h (1 Bft)
05.02.2010 20:00 12,6 C 4,9 C 0,0 UV-I 0,0 C 57 % 94 % 0 % 1006,8 hPa 0,0 l/m 4,8 km/h (1 Bft) 0,00 h 4,7 km/h (1 Bft)
05.02.2010 21:00 12,7 C 4,6 C 0,0 UV-I 0,0 C 57 % 94 % 0 % 1007,1 hPa 0,0 l/m 3,0 km/h (1 Bft) 0,00 h 3,0 km/h (1 Bft)
05.02.2010 22:00 12,7 C 4,3 C 0,0 UV-I 0,0 C 57 % 94 % 0 % 1007,5 hPa 0,0 l/m 1,8 km/h (1 Bft) 0,00 h 2,2 km/h (1 Bft)
05.02.2010 23:00 12,6 C 4,1 C 0,0 UV-I 0,0 C 56 % 94 % 0 % 1007,9 hPa 0,0 l/m 3,6 km/h (1 Bft) 0,00 h 4,2 km/h (1 Bft)
06.02.2010 00:00 12,6 C 3,7 C 0,0 UV-I 0,0 C 56 % 95 % 0 % 1008,2 hPa 0,0 l/m 3,1 km/h (1 Bft) 0,00 h 3,0 km/h (1 Bft)
06.02.2010 01:00 12,6 C 3,0 C 0,0 UV-I 0,0 C 56 % 95 % 0 % 1008,3 hPa 0,0 l/m 1,3 km/h (1 Bft) 0,00 h 1,9 km/h (1 Bft)
06.02.2010 02:00 12,5 C 2,4 C 0,0 UV-I 0,0 C 56 % 95 % 0 % 1008,6 hPa 0,0 l/m 0,6 km/h (0 Bft) 0,00 h 0,9 km/h (0 Bft)
06.02.2010 03:00 12,4 C 1,7 C 0,0 UV-I 0,0 C 55 % 95 % 0 % 1008,3 hPa 0,0 l/m 0,0 km/h (0 Bft) 0,00 h 0,0 km/h (0 Bft)
06.02.2010 04:00 12,4 C 1,6 C 0,0 UV-I 0,0 C 55 % 96 % 0 % 1008,6 hPa 0,0 l/m 0,1 km/h (0 Bft) 0,00 h 0,2 km/h (0 Bft)
06.02.2010 05:00 12,4 C 1,8 C 0,0 UV-I 0,0 C 55 % 96 % 0 % 1008,5 hPa 0,0 l/m 1,0 km/h (0 Bft) 0,00 h 1,1 km/h (1 Bft)
06.02.2010 06:00 12,4 C 1,5 C 0,0 UV-I 0,0 C 54 % 95 % 0 % 1008,7 hPa 0,0 l/m 0,7 km/h (0 Bft) 0,00 h 0,7 km/h (0 Bft)
06.02.2010 07:00 12,4 C 1,6 C 0,0 UV-I 0,0 C 54 % 96 % 0 % 1008,7 hPa 0,0 l/m 0,6 km/h (0 Bft) 0,00 h 1,3 km/h (1 Bft)
06.02.2010 08:00 12,4 C 1,5 C 0,0 UV-I 0,0 C 54 % 96 % 0 % 1009,0 hPa 0,0 l/m 0,6 km/h (0 Bft) 0,00 h 1,1 km/h (0 Bft)
06.02.2010 09:00 12,4 C 1,7 C 0,1 UV-I 0,9 C 54 % 96 % 26 % 1009,4 hPa 0,0 l/m 0,2 km/h (0 Bft) 0,23 h 0,4 km/h (0 Bft)
06.02.2010 10:00 12,4 C 2,7 C 0,6 UV-I 4,8 C 54 % 97 % 98 % 1010,0 hPa 0,0 l/m 1,6 km/h (1 Bft) 0,97 h 3,5 km/h (1 Bft)
06.02.2010 11:00 12,6 C 4,7 C 1,0 UV-I 6,5 C 54 % 97 % 100 % 1010,8 hPa 0,0 l/m 3,4 km/h (1 Bft) 1,00 h 3,8 km/h (1 Bft)
06.02.2010 12:00 12,9 C 7,1 C 2,7 UV-I 6,7 C 54 % 94 % 100 % 1011,6 hPa 0,0 l/m 2,6 km/h (1 Bft) 0,97 h 3,3 km/h (1 Bft)
06.02.2010 13:00 13,7 C 7,9 C 1,1 UV-I 1,9 C 54 % 88 % 48 % 1012,0 hPa 0,0 l/m 0,5 km/h (0 Bft) 0,13 h 1,1 km/h (1 Bft)
06.02.2010 14:00 13,8 C 8,0 C 0,9 UV-I 0,7 C 53 % 86 % 19 % 1012,3 hPa 0,0 l/m 0,3 km/h (0 Bft) 0,00 h 0,5 km/h (0 Bft)
06.02.2010 15:00 13,9 C 8,1 C 0,4 UV-I 0,6 C 53 % 85 % 17 % 1012,6 hPa 0,0 l/m 0,3 km/h (0 Bft) 0,00 h 0,8 km/h (0 Bft)
06.02.2010 16:00 13,8 C 7,7 C 0,0 UV-I 0,0 C 53 % 85 % 0 % 1013,2 hPa 0,0 l/m 1,6 km/h (1 Bft) 0,00 h 1,8 km/h (1 Bft)
06.02.2010 17:00 13,6 C 7,1 C 0,0 UV-I 0,0 C 54 % 87 % 0 % 1013,8 hPa 0,0 l/m 1,6 km/h (1 Bft) 0,00 h 2,7 km/h (1 Bft)
06.02.2010 18:00 13,5 C 6,6 C 0,0 UV-I 0,0 C 54 % 88 % 0 % 1014,4 hPa 0,0 l/m 1,8 km/h (1 Bft) 0,00 h 2,9 km/h (1 Bft)
06.02.2010 19:00 13,4 C 5,3 C 0,0 UV-I 0,0 C 54 % 90 % 0 % 1015,3 hPa 0,0 l/m 5,6 km/h (1 Bft) 0,00 h 5,4 km/h (1 Bft)
06.02.2010 20:00 13,3 C 4,0 C 0,0 UV-I 0,0 C 54 % 92 % 0 % 1016,1 hPa 0,1 l/m 2,8 km/h (1 Bft) 0,00 h 3,5 km/h (1 Bft)
06.02.2010 21:00 13,2 C 3,4 C 0,0 UV-I 0,0 C 54 % 93 % 0 % 1016,6 hPa 0,3 l/m 1,5 km/h (1 Bft) 0,00 h 2,1 km/h (1 Bft)
06.02.2010 22:00 13,2 C 3,0 C 0,0 UV-I 0,0 C 54 % 93 % 0 % 1017,2 hPa 0,0 l/m 1,9 km/h (1 Bft) 0,00 h 2,9 km/h (1 Bft)
06.02.2010 23:00 13,1 C 2,7 C 0,0 UV-I 0,0 C 54 % 93 % 0 % 1017,6 hPa 0,0 l/m 2,6 km/h (1 Bft) 0,00 h 3,1 km/h (1 Bft)
07.02.2010 00:00 13,0 C 2,4 C 0,0 UV-I 0,0 C 54 % 93 % 0 % 1018,3 hPa 0,0 l/m 2,9 km/h (1 Bft) 0,00 h 3,2 km/h (1 Bft)
07.02.2010 01:00 12,8 C 2,1 C 0,0 UV-I 0,0 C 54 % 93 % 0 % 1018,5 hPa 0,1 l/m 3,5 km/h (1 Bft) 0,00 h 3,4 km/h (1 Bft)
07.02.2010 02:00 12,8 C 1,9 C 0,0 UV-I 0,0 C 54 % 93 % 0 % 1018,7 hPa 0,0 l/m 2,7 km/h (1 Bft) 0,00 h 3,6 km/h (1 Bft)
07.02.2010 03:00 12,8 C 1,8 C 0,0 UV-I 0,0 C 54 % 93 % 0 % 1019,3 hPa 0,0 l/m 3,0 km/h (1 Bft) 0,00 h 3,0 km/h (1 Bft)
07.02.2010 04:00 12,7 C 1,7 C 0,0 UV-I 0,0 C 53 % 93 % 0 % 1019,3 hPa 0,0 l/m 2,2 km/h (1 Bft) 0,00 h 2,5 km/h (1 Bft)
07.02.2010 05:00 12,7 C 1,6 C 0,0 UV-I 0,0 C 53 % 93 % 0 % 1019,5 hPa 0,0 l/m 1,4 km/h (1 Bft) 0,00 h 2,2 km/h (1 Bft)
07.02.2010 06:00 12,7 C 1,6 C 0,0 UV-I 0,0 C 53 % 94 % 0 % 1019,7 hPa 0,0 l/m 1,4 km/h (1 Bft) 0,00 h 2,0 km/h (1 Bft)
07.02.2010 07:00 12,7 C 1,6 C 0,0 UV-I 0,0 C 53 % 94 % 0 % 1019,9 hPa 0,0 l/m 0,9 km/h (0 Bft) 0,00 h 0,8 km/h (0 Bft)
07.02.2010 08:00 12,7 C 1,6 C 0,0 UV-I 0,0 C 53 % 94 % 0 % 1020,4 hPa 0,0 l/m 1,7 km/h (1 Bft) 0,00 h 3,0 km/h (1 Bft)
07.02.2010 09:00 12,7 C 1,7 C 0,0 UV-I 0,0 C 52 % 94 % 0 % 1020,7 hPa 0,0 l/m 2,3 km/h (1 Bft) 0,00 h 2,8 km/h (1 Bft)
07.02.2010 10:00 12,7 C 2,0 C 0,0 UV-I 0,0 C 52 % 94 % 0 % 1020,9 hPa 0,0 l/m 2,1 km/h (1 Bft) 0,00 h 1,9 km/h (1 Bft)
07.02.2010 11:00 12,8 C 2,4 C 0,1 UV-I 0,1 C 52 % 94 % 4 % 1021,0 hPa 0,0 l/m 1,3 km/h (1 Bft) 0,00 h 2,3 km/h (1 Bft)
07.02.2010 12:00 12,8 C 2,9 C 0,2 UV-I 0,3 C 52 % 93 % 7 % 1020,8 hPa 0,0 l/m 1,2 km/h (1 Bft) 0,00 h 2,1 km/h (1 Bft)
07.02.2010 13:00 12,8 C 3,2 C 0,0 UV-I 0,1 C 52 % 92 % 3 % 1020,0 hPa 0,0 l/m 1,5 km/h (1 Bft) 0,00 h 2,0 km/h (1 Bft)
07.02.2010 14:00 12,9 C 3,3 C 0,0 UV-I 0,0 C 52 % 92 % 0 % 1019,7 hPa 0,0 l/m 1,8 km/h (1 Bft) 0,00 h 2,3 km/h (1 Bft)
07.02.2010 15:00 12,8 C 3,2 C 0,0 UV-I 0,0 C 52 % 93 % 0 % 1019,4 hPa 0,0 l/m 1,4 km/h (1 Bft) 0,00 h 2,4 km/h (1 Bft)
07.02.2010 16:00 12,8 C 3,1 C 0,0 UV-I 0,0 C 53 % 94 % 0 % 1019,0 hPa 0,0 l/m 1,7 km/h (1 Bft) 0,00 h 2,1 km/h (1 Bft)
07.02.2010 17:00 12,7 C 3,1 C 0,0 UV-I 0,0 C 53 % 94 % 0 % 1019,0 hPa 0,0 l/m 0,1 km/h (0 Bft) 0,00 h 0,2 km/h (0 Bft)
07.02.2010 18:00 12,5 C 3,2 C 0,0 UV-I 0,0 C 53 % 94 % 0 % 1018,7 hPa 0,0 l/m 0,2 km/h (0 Bft) 0,00 h 0,4 km/h (0 Bft)
07.02.2010 19:00 12,3 C 3,2 C 0,0 UV-I 0,0 C 53 % 94 % 0 % 1018,0 hPa 0,0 l/m 0,0 km/h (0 Bft) 0,00 h 0,0 km/h (0 Bft)
07.02.2010 20:00 12,4 C 3,2 C 0,0 UV-I 0,0 C 52 % 93 % 0 % 1017,4 hPa 0,0 l/m 0,0 km/h (0 Bft) 0,00 h 0,0 km/h (0 Bft)
07.02.2010 21:00 12,2 C 2,7 C 0,0 UV-I 0,0 C 52 % 93 % 0 % 1017,1 hPa 0,0 l/m 0,0 km/h (0 Bft) 0,00 h 0,0 km/h (0 Bft)
07.02.2010 22:00 12,2 C 2,4 C 0,0 UV-I 0,0 C 52 % 93 % 0 % 1016,4 hPa 0,0 l/m 0,0 km/h (0 Bft) 0,00 h 0,0 km/h (0 Bft)
07.02.2010 23:00 12,2 C 2,3 C 0,0 UV-I 0,0 C 51 % 93 % 0 % 1016,2 hPa 0,0 l/m 0,0 km/h (0 Bft) 0,00 h 0,0 km/h (0 Bft)
Min-Datum _ 01.02.10 02.02.10 01.02.10 01.02.10 03.02.10 03.02.10 01.02.10 02.02.10 - 01.02.10 - 01.02.10
_ Min-Zeit 00:24 01:48 00:00 00:00 15:56 15:06 00:00 22:32 - 22:40 - 00:12
Minimum _ 8,9 C -1,1 C 0,0 UV-I 0,0 C 45 % 73 % 0 % 995,9 hPa - 0,0 km/h (0 Bft) - 0,0 km/h (0 Bft)
Max-Datum _ 06.02.10 04.02.10 06.02.10 06.02.10 02.02.10 02.02.10 03.02.10 07.02.10 02.02.10 02.02.10 03.02.10 02.02.10
_ Max-Zeit 15:04 15:08 12:38 12:50 22:14 18:30 11:00 10:52 14:34 19:01 10:18 18:40
Maximum _ 14,0 C 8,9 C 4,3 UV-I 8,6 C 60 % 97 % 100 % 1021,2 hPa 1,6 l/m 22,9 km/h
W-SW (4 Bft)
0,03 h 37,8 km/h
O-NO (5 Bft)
Durchschnitt _ 11,6 C 3,0 C 0,2 UV-I 0,3 C 54 % 92 % 7 % 1009,0 hPa #15,6 l/m 5,0 km/h (1 Bft) #8:58 h 5,2 km/h (1 Bft)
© 2012 W. Hausmann